createdAt,value
2023-01-23T00:07:31.261Z,10.93
2023-01-23T00:22:33.181Z,11.40
2023-01-23T00:37:35.195Z,11.63
2023-01-23T00:52:37.155Z,11.02
2023-01-23T01:07:39.101Z,11.88
2023-01-23T01:22:41.062Z,10.77
2023-01-23T01:37:43.047Z,11.15
2023-01-23T01:52:45.045Z,10.68
2023-01-23T02:07:55.380Z,10.20
2023-01-23T02:23:15.596Z,11.20
2023-01-23T02:53:20.448Z,12.00
2023-01-23T03:08:22.333Z,13.02
2023-01-23T03:23:24.208Z,13.20
2023-01-23T03:38:26.094Z,13.32
2023-01-23T03:53:28.111Z,14.02
2023-01-23T04:08:30.076Z,14.90
2023-01-23T04:23:32.098Z,15.48
2023-01-23T04:38:34.383Z,16.10
2023-01-23T04:53:36.372Z,15.93
2023-01-23T05:08:38.274Z,17.08
2023-01-23T05:23:40.192Z,16.52
2023-01-23T05:38:42.054Z,15.45
2023-01-23T05:53:44.159Z,14.15
2023-01-23T06:08:46.074Z,12.25
2023-01-23T06:23:48.093Z,12.10
2023-01-23T06:38:50.455Z,11.70
2023-01-23T06:53:52.537Z,12.10
2023-01-23T07:08:54.387Z,11.50
2023-01-23T07:23:56.492Z,11.20
2023-01-23T07:38:59.327Z,11.32
2023-01-23T07:54:01.377Z,12.43
2023-01-23T08:09:03.307Z,12.55
2023-01-23T08:24:05.801Z,12.95
2023-01-23T08:39:07.853Z,12.90
2023-01-23T08:54:09.747Z,12.68
2023-01-23T09:09:11.742Z,12.70
2023-01-23T09:24:13.656Z,13.98
2023-01-23T09:39:15.609Z,13.40
2023-01-23T09:54:21.292Z,12.75
2023-01-23T10:09:39.890Z,12.50
2023-01-23T10:24:41.869Z,13.18
2023-01-23T10:40:38.890Z,14.80
2023-01-23T10:55:45.870Z,14.48
2023-01-23T11:10:47.852Z,14.52
2023-01-23T11:25:52.133Z,13.68
2023-01-23T11:40:54.510Z,15.68
2023-01-23T11:55:58.992Z,15.40
2023-01-23T12:11:14.428Z,15.57
2023-01-23T12:26:24.818Z,15.55
2023-01-23T12:41:38.045Z,15.77
2023-01-23T12:56:42.092Z,14.82
2023-01-23T13:11:50.756Z,15.80
2023-01-23T13:26:52.735Z,15.13
2023-01-23T13:42:15.579Z,17.27
2023-01-23T14:28:05.869Z,17.50
2023-01-23T14:43:08.865Z,17.48
2023-01-23T14:58:18.879Z,17.27
2023-01-23T15:28:32.092Z,15.90
2023-01-23T15:43:34.012Z,16.40
2023-01-23T15:58:35.961Z,14.95
2023-01-23T16:13:37.826Z,16.17
2023-01-23T16:28:39.854Z,17.05
2023-01-23T16:43:41.757Z,16.30
2023-01-23T16:58:43.717Z,22.40
2023-01-23T17:13:45.959Z,17.65
2023-01-23T17:28:48.022Z,21.15
2023-01-23T17:43:51.676Z,26.88
2023-01-23T17:58:53.735Z,24.05
2023-01-23T18:14:21.640Z,23.00
2023-01-23T18:29:41.741Z,22.00
2023-01-23T18:45:11.221Z,21.40
2023-01-23T19:00:28.425Z,19.52
2023-01-23T19:15:47.184Z,20.58
2023-01-23T19:30:49.569Z,19.55
2023-01-23T19:45:51.579Z,21.83
2023-01-23T20:00:53.913Z,24.00
2023-01-23T20:15:56.044Z,22.85
2023-01-23T20:31:03.132Z,23.48
2023-01-23T20:46:07.359Z,24.33
2023-01-23T21:01:10.054Z,24.98
2023-01-23T21:16:15.952Z,24.70
2023-01-23T21:31:22.187Z,23.25
2023-01-23T21:46:24.314Z,22.98
2023-01-23T22:01:33.067Z,24.95
2023-01-23T22:16:48.038Z,23.43
2023-01-23T22:31:52.499Z,23.20
2023-01-23T22:46:54.588Z,21.45
2023-01-23T23:01:56.571Z,23.65
2023-01-23T23:16:58.803Z,22.80
2023-01-23T23:32:00.826Z,23.23
2023-01-23T23:47:02.888Z,25.10
